Time;durP1;ratioP1;P1;durP2;ratioP2;P2;SDS_P1;SDS_P2;PMS_P1;PMS_P2;Temp;Humidity;BMP_temperature;BMP_pressure;BME280_temperature;BME280_humidity;BME280_pressure;Samples;Min_cycle;Max_cycle;Signal;HPM_P1;HPM_P2
2022/12/23 00:01:26;;;;;;;1.88;0.70;;;;;;;6.87;100.00;93103.13;4992400;28;20132;-61
2022/12/23 00:03:57;;;;;;;1.80;0.80;;;;;;;6.91;100.00;93112.78;4993335;28;20043;-62
2022/12/23 00:06:23;;;;;;;1.60;0.63;;;;;;;6.94;100.00;93103.00;4993431;28;20426;-62
2022/12/23 00:08:56;;;;;;;1.50;0.52;;;;;;;6.98;100.00;93103.72;4992290;28;20402;-62
2022/12/23 00:11:26;;;;;;;1.63;0.80;;;;;;;7.00;100.00;93110.34;4992590;28;20050;-61
2022/12/23 00:16:47;;;;;;;1.60;0.77;;;;;;;6.91;100.00;93101.88;4992690;28;20042;-62
2022/12/23 00:19:14;;;;;;;1.93;0.70;;;;;;;6.99;100.00;93108.00;4992576;28;20053;-62
2022/12/23 00:21:40;;;;;;;1.42;0.43;;;;;;;7.02;100.00;93098.22;4992679;28;20042;-62
2022/12/23 00:24:07;;;;;;;1.50;0.65;;;;;;;7.02;100.00;93095.50;5007447;28;20049;-62
2022/12/23 00:26:34;;;;;;;1.70;0.80;;;;;;;7.05;100.00;93106.34;4975707;28;20051;-62
2022/12/23 00:29:00;;;;;;;1.60;0.88;;;;;;;7.06;100.00;93105.16;5007868;28;20465;-62
2022/12/23 00:31:27;;;;;;;2.37;0.70;;;;;;;7.08;100.00;93097.34;4992943;28;20046;-61
2022/12/23 00:33:54;;;;;;;1.83;0.60;;;;;;;7.17;100.00;93092.13;4991537;28;20038;-61
2022/12/23 00:36:24;;;;;;;1.40;0.70;;;;;;;7.26;100.00;93104.47;4992276;28;20056;-61
2022/12/23 00:44:22;;;;;;;1.30;0.50;;;;;;;7.34;100.00;93105.91;4992475;28;20060;-61
2022/12/23 00:46:49;;;;;;;1.70;0.60;;;;;;;7.30;100.00;93100.50;4992010;28;20081;-62
2022/12/23 00:52:03;;;;;;;1.60;0.60;;;;;;;7.39;100.00;93094.53;4990909;28;21486;-62
2022/12/23 00:54:30;;;;;;;2.13;0.60;;;;;;;7.48;100.00;93094.75;4991655;28;20042;-61
2022/12/23 00:56:58;;;;;;;1.40;0.67;;;;;;;7.48;100.00;93102.19;4991333;28;20065;-61
2022/12/23 00:59:25;;;;;;;1.63;0.50;;;;;;;7.49;100.00;93101.00;4990507;28;20049;-60
2022/12/23 01:07:33;;;;;;;1.52;0.50;;;;;;;7.46;100.00;93099.84;4991601;28;20411;-62
2022/12/23 01:10:00;;;;;;;1.90;0.70;;;;;;;7.48;100.00;93105.66;4991689;28;20046;-62
2022/12/23 01:12:27;;;;;;;1.65;0.60;;;;;;;7.51;100.00;93112.28;4991396;28;20045;-61
2022/12/23 01:14:53;;;;;;;1.60;0.40;;;;;;;7.56;100.00;93111.78;4992116;28;20443;-62
2022/12/23 01:17:20;;;;;;;1.95;0.55;;;;;;;7.56;100.00;93118.00;4991354;28;20057;-62
2022/12/23 01:19:47;;;;;;;1.60;0.57;;;;;;;7.50;100.00;93119.69;4991604;28;20046;-62
2022/12/23 01:22:14;;;;;;;2.00;0.50;;;;;;;7.54;100.00;93119.63;4991679;28;20123;-62
2022/12/23 01:24:40;;;;;;;2.13;0.52;;;;;;;7.55;100.00;93126.63;4991483;28;20046;-62
2022/12/23 01:27:07;;;;;;;1.67;0.80;;;;;;;7.58;100.00;93131.25;4990191;28;20080;-62
2022/12/23 01:29:33;;;;;;;1.80;0.60;;;;;;;7.56;100.00;93142.59;4991588;28;20414;-62
2022/12/23 01:32:00;;;;;;;2.83;1.45;;;;;;;7.54;100.00;93134.03;4990607;28;20072;-63
2022/12/23 01:34:27;;;;;;;1.80;0.80;;;;;;;7.50;100.00;93141.50;4991000;28;20054;-62
2022/12/23 01:37:02;;;;;;;1.48;0.63;;;;;;;7.49;100.00;93142.72;4991060;28;20046;-62
2022/12/23 01:39:28;;;;;;;2.03;0.90;;;;;;;7.54;100.00;93146.94;4991180;28;20050;-62
2022/12/23 01:45:01;;;;;;;1.77;0.75;;;;;;;7.52;100.00;93152.78;4990952;28;20406;-62
2022/12/23 01:47:37;;;;;;;2.00;0.67;;;;;;;7.51;100.00;93145.03;4990659;28;20042;-62
2022/12/23 01:50:07;;;;;;;1.83;0.75;;;;;;;7.50;100.00;93144.25;5002530;28;20046;-62
2022/12/23 01:52:44;;;;;;;3.30;1.08;;;;;;;7.48;100.00;93149.34;4991536;28;20445;-62
2022/12/23 01:55:13;;;;;;;2.53;0.70;;;;;;;7.58;100.00;93144.91;4991020;28;20050;-60
2022/12/23 01:57:41;;;;;;;1.90;0.90;;;;;;;7.64;100.00;93147.94;4991191;28;20046;-60
2022/12/23 02:05:42;;;;;;;12.35;5.75;;;;;;;7.72;100.00;93161.06;4990761;28;20049;-61
2022/12/23 02:11:27;;;;;;;1.70;0.70;;;;;;;7.87;100.00;93164.34;4989839;28;20781;-61
2022/12/23 02:17:16;;;;;;;2.22;1.02;;;;;;;7.86;100.00;93160.03;4979509;28;20046;-62
2022/12/23 02:20:05;;;;;;;2.10;0.80;;;;;;;7.94;100.00;93157.97;4978282;28;20041;-61
2022/12/23 02:23:02;;;;;;;1.83;0.80;;;;;;;7.90;100.00;93160.00;4990637;28;20046;-61
2022/12/23 02:25:41;;;;;;;2.45;1.23;;;;;;;7.97;100.00;93168.84;4990262;28;20066;-61
2022/12/23 02:28:20;;;;;;;2.53;1.07;;;;;;;7.95;100.00;93173.94;4979056;28;20056;-61
2022/12/23 02:31:12;;;;;;;1.92;0.60;;;;;;;7.61;100.00;93163.22;4989972;28;20072;-61
2022/12/23 02:33:56;;;;;;;1.95;1.02;;;;;;;7.74;100.00;93171.56;4990245;28;20051;-61
2022/12/23 02:36:28;;;;;;;2.55;0.93;;;;;;;7.77;100.00;93174.25;4990262;28;20042;-61
2022/12/23 02:39:04;;;;;;;2.17;0.90;;;;;;;7.80;100.00;93169.91;4989754;28;21579;-61
2022/12/23 02:41:52;;;;;;;1.90;0.80;;;;;;;7.53;100.00;93181.66;4990104;28;20049;-61
2022/12/23 02:44:24;;;;;;;2.92;1.15;;;;;;;7.58;100.00;93169.47;4990196;28;20050;-61
2022/12/23 02:47:01;;;;;;;2.28;1.48;;;;;;;7.64;100.00;93175.25;4989514;28;20457;-61
2022/12/23 02:49:37;;;;;;;1.95;1.05;;;;;;;7.68;100.00;93173.22;4990053;28;20050;-61
2022/12/23 02:52:11;;;;;;;2.50;1.10;;;;;;;7.66;100.00;93167.41;4978533;28;20047;-61
2022/12/23 02:54:43;;;;;;;1.70;0.70;;;;;;;7.70;100.00;93176.31;4989981;28;20058;-61
2022/12/23 02:57:13;;;;;;;1.70;0.68;;;;;;;7.97;100.00;93170.81;4989019;28;20051;-61
2022/12/23 02:59:45;;;;;;;2.20;0.88;;;;;;;8.20;100.00;93172.72;4990492;28;20043;-61
2022/12/23 03:02:11;;;;;;;1.83;0.77;;;;;;;8.18;100.00;93173.13;4990388;28;20108;-61
2022/12/23 03:04:40;;;;;;;2.17;0.95;;;;;;;8.29;100.00;93180.38;5005044;28;20042;-61
2022/12/23 03:07:17;;;;;;;1.90;0.80;;;;;;;8.43;100.00;93182.09;4990346;28;20053;-61
2022/12/23 03:09:53;;;;;;;2.28;1.10;;;;;;;8.53;100.00;93184.66;4990043;28;22109;-61
2022/12/23 03:12:39;;;;;;;1.80;0.65;;;;;;;8.63;100.00;93195.78;4990024;28;20108;-61
2022/12/23 03:15:36;;;;;;;1.95;0.60;;;;;;;8.60;100.00;93189.97;4989138;28;21656;-61
2022/12/23 03:18:24;;;;;;;2.08;0.73;;;;;;;8.57;100.00;93187.28;4977619;28;20491;-61
2022/12/23 03:21:05;;;;;;;2.33;0.40;;;;;;;8.70;100.00;93201.88;4992980;28;20119;-61
2022/12/23 03:23:41;;;;;;;1.75;0.55;;;;;;;9.00;100.00;93186.44;5008240;28;20046;-61
2022/12/23 03:26:15;;;;;;;1.80;1.10;;;;;;;8.82;100.00;93189.53;4993518;28;20050;-61
2022/12/23 03:28:59;;;;;;;2.10;0.90;;;;;;;8.77;100.00;93201.75;4993620;28;20047;-61
2022/12/23 03:31:30;;;;;;;1.50;0.60;;;;;;;8.86;100.00;93198.44;4992807;28;20043;-61
2022/12/23 03:34:04;;;;;;;1.90;0.87;;;;;;;8.91;100.00;93197.94;4993946;28;20054;-61
2022/12/23 03:36:37;;;;;;;1.60;0.60;;;;;;;8.90;100.00;93193.69;4992581;28;20042;-61
2022/12/23 03:39:07;;;;;;;2.20;1.20;;;;;;;8.75;100.00;93209.63;4994082;28;20410;-61
2022/12/23 03:41:40;;;;;;;2.10;1.00;;;;;;;8.65;100.00;93201.59;4980686;28;20046;-61
2022/12/23 03:44:23;;;;;;;3.15;1.10;;;;;;;8.57;100.00;93207.22;4993501;28;20057;-62
2022/12/23 03:47:02;;;;;;;2.07;0.50;;;;;;;8.59;100.00;93215.00;4981803;28;20763;-61
2022/12/23 03:49:37;;;;;;;1.60;0.60;;;;;;;8.66;100.00;93216.84;4992885;28;20085;-61
2022/12/23 03:52:23;;;;;;;2.10;0.70;;;;;;;8.62;100.00;93216.91;4993618;28;20052;-61
2022/12/23 03:54:53;;;;;;;5.22;2.40;;;;;;;8.65;100.00;93216.03;4993179;28;20050;-62
2022/12/23 03:57:24;;;;;;;1.98;0.90;;;;;;;8.42;100.00;93218.84;4991864;28;20042;-62
2022/12/23 03:59:52;;;;;;;2.63;0.50;;;;;;;8.55;100.00;93217.81;4993240;28;20745;-61
2022/12/23 04:02:43;;;;;;;1.95;0.70;;;;;;;8.65;100.00;93213.31;4993083;28;20088;-62
2022/12/23 04:05:16;;;;;;;4.45;1.40;;;;;;;8.71;100.00;93211.66;4980520;28;20651;-62
2022/12/23 04:07:50;;;;;;;4.07;2.10;;;;;;;8.62;100.00;93213.41;4992842;28;20050;-62
2022/12/23 04:10:20;;;;;;;2.63;1.40;;;;;;;8.72;100.00;93212.41;4993950;28;20051;-61
2022/12/23 04:12:47;;;;;;;2.00;0.60;;;;;;;8.82;100.00;93213.41;5020643;28;20388;-61
2022/12/23 04:15:21;;;;;;;1.90;0.50;;;;;;;8.80;100.00;93211.84;4992802;28;20046;-61
2022/12/23 04:17:49;;;;;;;1.85;0.70;;;;;;;8.89;100.00;93216.75;4992510;28;20050;-61
2022/12/23 04:20:16;;;;;;;2.80;1.40;;;;;;;8.88;100.00;93217.94;4992709;28;20050;-61
2022/12/23 04:22:43;;;;;;;3.25;1.50;;;;;;;8.80;100.00;93208.34;4992465;28;20042;-61
2022/12/23 04:25:12;;;;;;;3.93;0.93;;;;;;;8.59;100.00;93207.56;4992756;28;20046;-61
2022/12/23 04:27:39;;;;;;;1.90;0.90;;;;;;;8.68;100.00;93200.78;4992297;28;20069;-61
2022/12/23 04:30:08;;;;;;;1.95;0.95;;;;;;;8.80;100.00;93205.59;4992446;28;20043;-61
2022/12/23 04:32:35;;;;;;;1.80;0.80;;;;;;;8.71;100.00;93210.84;4991294;28;20069;-61
2022/12/23 04:35:03;;;;;;;4.10;1.73;;;;;;;8.72;100.00;93194.03;4992624;28;20100;-62
2022/12/23 04:37:29;;;;;;;3.47;1.30;;;;;;;8.69;100.00;93203.09;4991776;28;20454;-61
2022/12/23 04:39:56;;;;;;;2.47;0.90;;;;;;;8.57;100.00;93204.50;4992731;28;20487;-61
2022/12/23 04:42:23;;;;;;;2.78;1.88;;;;;;;8.48;100.00;93211.69;4992572;28;20042;-61
2022/12/23 04:44:50;;;;;;;2.20;1.40;;;;;;;8.45;100.00;93221.53;4991651;28;20575;-61
2022/12/23 04:47:17;;;;;;;3.72;1.98;;;;;;;8.43;100.00;93229.38;4992162;28;20046;-61
2022/12/23 04:49:44;;;;;;;1.90;0.60;;;;;;;8.36;100.00;93216.56;4992016;28;20094;-61
2022/12/23 04:52:10;;;;;;;2.45;0.95;;;;;;;8.45;100.00;93221.53;4992776;28;20060;-61
2022/12/23 04:54:37;;;;;;;3.67;1.75;;;;;;;8.38;100.00;93221.63;4991986;28;20142;-61
2022/12/23 04:57:11;;;;;;;3.50;2.47;;;;;;;8.30;100.00;93215.50;4992800;28;20044;-62
2022/12/23 04:59:38;;;;;;;3.10;2.03;;;;;;;8.39;100.00;93218.47;4991593;28;20077;-61
2022/12/23 05:02:05;;;;;;;2.60;1.40;;;;;;;8.32;100.00;93220.56;4992206;28;20089;-61
2022/12/23 05:04:32;;;;;;;3.58;1.27;;;;;;;8.44;100.00;93219.19;4991288;28;20053;-61
2022/12/23 05:06:59;;;;;;;2.25;1.20;;;;;;;8.43;100.00;93239.50;4992010;28;20062;-61
2022/12/23 05:09:25;;;;;;;4.03;1.80;;;;;;;8.33;100.00;93228.34;4991818;28;20050;-61
2022/12/23 05:11:52;;;;;;;2.90;1.42;;;;;;;8.38;100.00;93230.56;4992123;28;20042;-61
2022/12/23 05:14:19;;;;;;;3.80;1.67;;;;;;;8.46;100.00;93230.50;4993854;28;20042;-61
2022/12/23 05:16:45;;;;;;;3.97;1.80;;;;;;;8.27;100.00;93218.28;4991590;28;20410;-61
2022/12/23 05:19:12;;;;;;;3.75;2.30;;;;;;;8.20;100.00;93230.13;4991836;28;20050;-62
2022/12/23 05:21:39;;;;;;;3.65;2.00;;;;;;;8.33;100.00;93233.81;4991531;28;20077;-62
2022/12/23 05:24:06;;;;;;;3.72;1.90;;;;;;;8.27;100.00;93238.22;4992041;28;20434;-62
2022/12/23 05:26:32;;;;;;;4.40;2.10;;;;;;;8.20;100.00;93236.34;4991120;28;20388;-62
2022/12/23 05:28:59;;;;;;;3.08;1.50;;;;;;;8.31;100.00;93246.34;4991603;28;20054;-61
2022/12/23 05:31:25;;;;;;;3.92;1.40;;;;;;;8.43;100.00;93243.03;4999462;28;20419;-61
2022/12/23 05:33:52;;;;;;;3.33;1.20;;;;;;;8.43;100.00;93239.50;4995837;28;20038;-61
2022/12/23 05:36:19;;;;;;;3.88;1.70;;;;;;;8.47;100.00;93229.28;4991257;28;20045;-61
2022/12/23 05:38:46;;;;;;;4.43;2.17;;;;;;;8.46;100.00;93225.78;4991314;28;20050;-61
2022/12/23 05:41:15;;;;;;;3.55;1.23;;;;;;;8.46;100.00;93225.03;4991753;28;20054;-61
2022/12/23 05:43:42;;;;;;;2.17;1.05;;;;;;;8.39;100.00;93236.81;4990542;28;20050;-61
2022/12/23 05:46:09;;;;;;;3.42;1.60;;;;;;;8.32;100.00;93237.72;5004336;28;20049;-61
2022/12/23 05:48:35;;;;;;;3.70;2.10;;;;;;;8.28;100.00;93242.47;4990566;28;20054;-62
2022/12/23 05:51:02;;;;;;;6.30;2.50;;;;;;;8.42;100.00;93243.47;4977236;28;20049;-62
2022/12/23 05:53:29;;;;;;;7.32;3.17;;;;;;;8.47;100.00;93248.44;4990644;28;20052;-61
2022/12/23 05:55:55;;;;;;;3.80;2.10;;;;;;;8.44;100.00;93246.53;4990966;28;20046;-61
2022/12/23 05:58:22;;;;;;;4.03;2.10;;;;;;;8.46;100.00;93241.44;4990536;28;20432;-61
2022/12/23 06:00:49;;;;;;;3.80;2.03;;;;;;;8.38;100.00;93233.31;4987378;28;20517;-61
2022/12/23 06:03:16;;;;;;;2.50;1.30;;;;;;;8.29;100.00;93240.50;4988266;28;20398;-61
2022/12/23 06:05:43;;;;;;;6.25;3.33;;;;;;;8.42;100.00;93246.97;4990396;28;20038;-61
2022/12/23 06:08:10;;;;;;;6.43;3.53;;;;;;;8.44;100.00;93247.31;4991068;28;20054;-62
2022/12/23 06:10:36;;;;;;;6.28;3.10;;;;;;;8.51;100.00;93254.59;4990184;28;20104;-61
2022/12/23 06:13:03;;;;;;;5.15;3.30;;;;;;;8.26;100.00;93250.31;4990970;28;20771;-61
2022/12/23 06:15:30;;;;;;;4.37;2.43;;;;;;;8.40;100.00;93249.31;4990177;28;20437;-62
2022/12/23 06:17:56;;;;;;;5.57;2.72;;;;;;;8.44;100.00;93258.25;4990862;28;20046;-61
2022/12/23 06:20:23;;;;;;;4.88;2.70;;;;;;;8.47;100.00;93259.38;5004967;28;20050;-61
2022/12/23 06:22:50;;;;;;;3.78;1.77;;;;;;;8.44;100.00;93254.75;4990033;28;20509;-61
2022/12/23 06:25:16;;;;;;;3.60;2.30;;;;;;;8.43;100.00;93256.72;4989405;28;20429;-61
2022/12/23 06:27:43;;;;;;;4.87;2.60;;;;;;;8.36;100.00;93263.03;4990212;28;20395;-61
2022/12/23 06:30:11;;;;;;;4.40;2.50;;;;;;;8.46;100.00;93266.03;5005605;28;20046;-61
2022/12/23 06:32:37;;;;;;;4.57;2.95;;;;;;;8.42;100.00;93257.13;4989886;28;20042;-61
2022/12/23 06:35:06;;;;;;;5.35;2.78;;;;;;;8.47;100.00;93254.69;4990773;28;20042;-61
2022/12/23 06:37:33;;;;;;;4.53;2.42;;;;;;;8.47;100.00;93251.94;4989608;28;20403;-61
2022/12/23 06:39:59;;;;;;;6.07;2.10;;;;;;;8.54;100.00;93242.84;4990582;28;20050;-61
2022/12/23 06:42:26;;;;;;;3.70;1.95;;;;;;;8.51;100.00;93244.47;4989409;28;20049;-61
2022/12/23 06:44:53;;;;;;;3.28;1.80;;;;;;;8.51;100.00;93249.13;4990458;28;20046;-62
2022/12/23 06:47:19;;;;;;;5.32;2.35;;;;;;;8.47;100.00;93248.44;4990161;28;20384;-61
2022/12/23 06:49:46;;;;;;;4.55;2.60;;;;;;;8.51;100.00;93251.88;4990094;28;20387;-61
2022/12/23 06:52:13;;;;;;;4.77;2.30;;;;;;;8.41;100.00;93256.38;4990532;28;20046;-61
2022/12/23 06:54:39;;;;;;;4.30;2.25;;;;;;;8.56;100.00;93256.88;4991508;28;20056;-61
2022/12/23 06:57:06;;;;;;;5.05;2.30;;;;;;;8.60;100.00;93263.81;4994444;28;20046;-61
2022/12/23 06:59:33;;;;;;;5.50;3.30;;;;;;;8.64;100.00;93263.75;5004170;28;20050;-61
2022/12/23 07:01:59;;;;;;;3.30;2.00;;;;;;;8.71;100.00;93268.31;4995288;28;20052;-61
2022/12/23 07:04:26;;;;;;;3.60;1.80;;;;;;;8.63;100.00;93273.13;4994621;28;20390;-61
2022/12/23 07:06:53;;;;;;;4.65;2.47;;;;;;;8.66;100.00;93277.78;5009291;28;20042;-61
2022/12/23 07:09:20;;;;;;;5.03;2.60;;;;;;;8.67;100.00;93273.06;4994078;28;20046;-62
2022/12/23 07:11:46;;;;;;;4.13;2.10;;;;;;;8.67;100.00;93270.34;4993763;28;20054;-62
2022/12/23 07:14:13;;;;;;;4.15;2.17;;;;;;;8.63;100.00;93278.59;4993719;28;20046;-62
2022/12/23 07:16:40;;;;;;;3.70;2.00;;;;;;;8.66;100.00;93277.78;4992955;28;20070;-61
2022/12/23 07:19:07;;;;;;;5.88;2.60;;;;;;;8.64;100.00;93276.66;4993298;28;20435;-61
2022/12/23 07:21:35;;;;;;;4.78;2.90;;;;;;;8.67;100.00;93264.88;4994808;28;20053;-61
2022/12/23 07:24:02;;;;;;;3.85;2.45;;;;;;;8.73;100.00;93271.38;4993729;28;20058;-62
2022/12/23 07:26:28;;;;;;;6.32;3.35;;;;;;;8.63;100.00;93273.13;4991979;28;20553;-61
2022/12/23 07:28:55;;;;;;;6.73;3.70;;;;;;;8.64;100.00;93280.16;4994177;28;20062;-62
2022/12/23 07:31:22;;;;;;;6.57;3.60;;;;;;;8.71;100.00;93279.25;4993430;28;20058;-61
2022/12/23 07:33:49;;;;;;;5.30;3.17;;;;;;;8.63;100.00;93275.88;4993235;28;20074;-62
2022/12/23 07:36:16;;;;;;;4.30;2.20;;;;;;;8.71;100.00;93273.78;4995657;28;20849;-62
2022/12/23 07:38:43;;;;;;;6.35;2.60;;;;;;;8.59;100.00;93284.16;4993076;28;20077;-62
2022/12/23 07:41:10;;;;;;;3.87;2.00;;;;;;;8.74;100.00;93286.63;4992374;28;20046;-62
2022/12/23 07:43:36;;;;;;;5.05;2.67;;;;;;;8.65;100.00;93298.09;4993084;28;20100;-61
2022/12/23 07:46:08;;;;;;;3.95;2.60;;;;;;;8.83;100.00;93297.00;4993635;28;20054;-61
2022/12/23 07:48:35;;;;;;;3.67;2.08;;;;;;;8.92;100.00;93311.69;4992708;28;20382;-61
2022/12/23 07:51:02;;;;;;;4.65;2.13;;;;;;;8.98;100.00;93303.78;4993533;28;20047;-62
2022/12/23 07:53:29;;;;;;;3.80;1.90;;;;;;;8.89;100.00;93307.03;4992984;28;20050;-60
2022/12/23 07:55:56;;;;;;;3.65;1.70;;;;;;;8.84;100.00;93307.53;4993170;28;20407;-61
2022/12/23 07:58:23;;;;;;;5.15;2.03;;;;;;;8.84;100.00;93307.53;4992627;28;20096;-62
2022/12/23 08:00:50;;;;;;;4.40;2.40;;;;;;;8.81;100.00;93311.09;4992635;28;20423;-61
2022/12/23 08:03:17;;;;;;;6.57;2.78;;;;;;;8.73;100.00;93307.75;4993313;28;20046;-61
2022/12/23 08:05:44;;;;;;;5.10;2.70;;;;;;;8.83;100.00;93319.66;4992011;28;20061;-61
2022/12/23 08:08:10;;;;;;;5.05;2.83;;;;;;;8.88;100.00;93321.16;4993400;28;20054;-61
2022/12/23 08:10:37;;;;;;;5.53;2.70;;;;;;;8.91;100.00;93323.03;4994935;28;20054;-61
2022/12/23 08:13:13;;;;;;;6.13;2.85;;;;;;;8.96;100.00;93322.56;4992824;28;20042;-61
2022/12/23 08:15:40;;;;;;;5.93;2.80;;;;;;;9.01;100.00;93327.53;4992227;28;20054;-61
2022/12/23 08:18:06;;;;;;;4.97;2.50;;;;;;;9.00;100.00;93309.59;4993175;28;20042;-61
2022/12/23 08:20:33;;;;;;;10.38;5.80;;;;;;;8.94;100.00;93320.25;4992018;28;20042;-60
2022/12/23 08:23:00;;;;;;;6.45;3.53;;;;;;;8.97;100.00;93329.56;4992913;28;20058;-61
2022/12/23 08:25:27;;;;;;;7.05;3.47;;;;;;;9.00;100.00;93323.28;4991941;28;20038;-61
2022/12/23 08:27:53;;;;;;;6.60;3.50;;;;;;;9.02;100.00;93325.59;4992418;28;20054;-61
2022/12/23 08:30:20;;;;;;;8.33;3.20;;;;;;;9.05;100.00;93328.25;4992774;28;20056;-61
2022/12/23 08:32:47;;;;;;;5.65;2.92;;;;;;;9.10;100.00;93340.69;4992116;28;20049;-60
2022/12/23 08:35:14;;;;;;;5.40;2.50;;;;;;;9.14;100.00;93347.63;4992457;28;20112;-61
2022/12/23 08:37:40;;;;;;;3.97;2.00;;;;;;;9.18;100.00;93339.38;4991730;28;20057;-60
2022/12/23 08:40:08;;;;;;;5.15;2.53;;;;;;;9.18;100.00;93339.38;4992401;28;20046;-61
2022/12/23 08:42:34;;;;;;;4.70;2.17;;;;;;;9.20;100.00;93340.47;4991340;28;20050;-61
2022/12/23 08:45:01;;;;;;;3.88;1.92;;;;;;;9.26;100.00;93338.03;4992283;28;20035;-61
2022/12/23 08:47:28;;;;;;;3.70;2.08;;;;;;;9.19;100.00;93332.69;4991977;28;20487;-60
2022/12/23 08:49:55;;;;;;;3.63;1.95;;;;;;;9.27;100.00;93330.59;4992103;28;20453;-61
2022/12/23 08:52:21;;;;;;;4.32;2.10;;;;;;;9.30;100.00;93327.03;4992172;28;20047;-61
2022/12/23 08:54:48;;;;;;;6.23;1.97;;;;;;;9.28;100.00;93334.88;4991445;28;20100;-61
2022/12/23 08:57:15;;;;;;;3.70;1.73;;;;;;;9.30;100.00;93335.22;4991982;28;20050;-61
2022/12/23 08:59:42;;;;;;;5.10;2.20;;;;;;;9.31;100.00;93331.28;4991058;28;20042;-61
2022/12/23 09:02:10;;;;;;;7.10;4.75;;;;;;;9.29;100.00;93337.19;4991882;28;20046;-61
2022/12/23 09:04:37;;;;;;;3.55;2.05;;;;;;;9.28;100.00;93329.41;4978573;28;20054;-61
2022/12/23 09:07:04;;;;;;;5.40;2.33;;;;;;;9.32;100.00;93333.59;4992027;28;20396;-62
2022/12/23 09:09:31;;;;;;;5.53;3.30;;;;;;;9.33;100.00;93335.13;4990603;28;20038;-62
2022/12/23 09:11:58;;;;;;;4.93;3.58;;;;;;;9.47;100.00;93333.31;4991359;28;20121;-62
2022/12/23 09:14:24;;;;;;;6.88;2.78;;;;;;;9.60;100.00;93337.72;4991412;28;20050;-62
2022/12/23 09:16:51;;;;;;;11.18;5.82;;;;;;;9.69;100.00;93334.41;4989808;28;20866;-61
2022/12/23 09:19:18;;;;;;;36.90;15.57;;;;;;;9.82;100.00;93340.03;4991118;28;20617;-61
2022/12/23 09:21:45;;;;;;;28.30;12.82;;;;;;;10.06;100.00;93332.44;4990594;28;20046;-60
2022/12/23 09:24:11;;;;;;;8.88;4.10;;;;;;;10.06;100.00;93335.19;4991437;28;20058;-61
2022/12/23 09:26:38;;;;;;;9.50;5.00;;;;;;;10.04;100.00;93321.13;4990082;28;20095;-61
2022/12/23 09:29:05;;;;;;;17.25;10.93;;;;;;;10.04;100.00;93325.81;4990762;28;20629;-61
2022/12/23 09:31:32;;;;;;;12.17;8.00;;;;;;;10.04;100.00;93334.06;4990311;28;20046;-61
2022/12/23 09:34:03;;;;;;;8.30;3.95;;;;;;;9.98;100.00;93333.81;4991243;28;20046;-61
2022/12/23 09:36:30;;;;;;;6.13;3.15;;;;;;;9.92;100.00;93338.22;4989556;28;20046;-61
2022/12/23 09:38:57;;;;;;;6.20;2.80;;;;;;;9.93;100.00;93334.31;4991276;28;20050;-61
2022/12/23 09:41:36;;;;;;;6.70;2.88;;;;;;;9.75;100.00;93331.94;4990629;28;20053;-62
2022/12/23 09:44:21;;;;;;;5.63;2.70;;;;;;;9.73;100.00;93332.38;4990531;28;20956;-62
2022/12/23 09:46:56;;;;;;;5.90;2.17;;;;;;;9.64;100.00;93321.22;4978321;28;20052;-62
2022/12/23 09:49:23;;;;;;;4.65;2.72;;;;;;;9.65;100.00;93330.22;4990772;28;20050;-63
2022/12/23 09:51:54;;;;;;;5.20;2.33;;;;;;;9.66;100.00;93326.25;4990119;28;20398;-61
2022/12/23 09:54:24;;;;;;;4.32;2.45;;;;;;;9.82;100.00;93331.00;4990799;28;20062;-61
2022/12/23 09:56:54;;;;;;;5.87;2.57;;;;;;;9.84;100.00;93325.88;4989744;28;20162;-62
2022/12/23 09:59:37;;;;;;;2.95;1.77;;;;;;;9.74;100.00;93324.94;4990796;28;20042;-63
2022/12/23 10:02:35;;;;;;;5.80;2.20;;;;;;;9.78;100.00;93328.38;4989986;28;20404;-62
2022/12/23 10:05:18;;;;;;;3.33;1.73;;;;;;;9.96;100.00;93326.00;4990141;28;20652;-62
2022/12/23 10:08:03;;;;;;;3.30;1.80;;;;;;;9.94;100.00;93333.09;5005164;28;20056;-62
2022/12/23 10:10:47;;;;;;;3.73;1.33;;;;;;;9.93;100.00;93324.09;4989630;28;20100;-61
2022/12/23 10:13:37;;;;;;;4.80;1.67;;;;;;;9.92;100.00;93308.88;4990009;28;20082;-62
2022/12/23 10:16:10;;;;;;;6.68;2.22;;;;;;;9.93;100.00;93310.41;4989663;28;20649;-63
2022/12/23 10:18:47;;;;;;;3.88;1.98;;;;;;;9.96;100.00;93312.28;4989513;28;20058;-62
2022/12/23 10:21:28;;;;;;;3.47;1.65;;;;;;;10.00;100.00;93307.50;4990547;28;20046;-62
2022/12/23 10:23:54;;;;;;;3.83;1.80;;;;;;;10.02;100.00;93303.56;4989005;28;20046;-62
2022/12/23 10:26:49;;;;;;;3.92;1.52;;;;;;;10.14;100.00;93287.22;4989969;28;20058;-62
2022/12/23 10:29:21;;;;;;;4.93;1.52;;;;;;;10.27;100.00;93301.00;4988330;28;20624;-62
2022/12/23 10:32:16;;;;;;;3.60;1.50;;;;;;;10.26;100.00;93304.16;4989613;28;20041;-62
2022/12/23 10:34:42;;;;;;;4.65;1.70;;;;;;;10.25;100.00;93292.44;4989576;28;20054;-63
2022/12/23 10:37:37;;;;;;;2.67;1.10;;;;;;;10.18;100.00;93292.59;4990707;28;20132;-63
2022/12/23 10:40:36;;;;;;;3.33;1.23;;;;;;;10.16;100.00;93293.03;4989164;28;21760;-63
2022/12/23 10:43:40;;;;;;;2.83;1.10;;;;;;;10.22;100.00;93287.03;4980747;28;20212;-63
2022/12/23 10:46:26;;;;;;;4.97;1.55;;;;;;;10.30;100.00;93278.25;4989386;28;21506;-63
2022/12/23 10:49:23;;;;;;;3.63;1.73;;;;;;;10.30;100.00;93269.22;4989126;28;20815;-61
2022/12/23 10:51:54;;;;;;;3.90;1.40;;;;;;;10.28;100.00;93277.88;4988026;28;20072;-62
2022/12/23 10:54:34;;;;;;;4.32;1.98;;;;;;;10.12;100.00;93264.94;4990328;28;20081;-61
2022/12/23 10:57:04;;;;;;;3.58;1.40;;;;;;;10.20;100.00;93262.78;4988962;28;20257;-61
2022/12/23 10:59:33;;;;;;;4.30;2.00;;;;;;;10.33;100.00;93254.66;4988971;28;20096;-61
2022/12/23 11:02:12;;;;;;;4.00;1.75;;;;;;;10.34;100.00;93257.00;4989375;28;20050;-61
2022/12/23 11:04:45;;;;;;;3.43;1.83;;;;;;;10.29;100.00;93243.75;4976333;28;20057;-62
2022/12/23 11:07:21;;;;;;;4.68;2.00;;;;;;;10.22;100.00;93249.41;4990264;28;20046;-63
2022/12/23 11:10:18;;;;;;;3.60;1.88;;;;;;;10.30;100.00;93245.34;4988796;28;20054;-60
2022/12/23 11:12:49;;;;;;;4.03;1.88;;;;;;;10.40;100.00;93249.00;4977146;28;20052;-61
2022/12/23 11:15:37;;;;;;;4.72;2.50;;;;;;;10.51;100.00;93246.75;4990167;28;20057;-61
2022/12/23 11:18:16;;;;;;;4.40;1.90;;;;;;;10.49;100.00;93240.94;4989186;28;21702;-61
2022/12/23 11:20:59;;;;;;;5.97;2.47;;;;;;;10.47;100.00;93243.34;4989356;28;20384;-62
2022/12/23 11:23:30;;;;;;;4.55;2.20;;;;;;;10.51;100.00;93243.25;4989445;28;20046;-62
2022/12/23 11:26:06;;;;;;;3.47;1.50;;;;;;;10.39;100.00;93245.47;4990121;28;20042;-62
2022/12/23 11:28:58;;;;;;;3.47;1.50;;;;;;;10.30;100.00;93244.53;4989416;28;20112;-61
2022/12/23 11:31:27;;;;;;;3.40;1.63;;;;;;;10.31;100.00;93229.66;4988245;28;20195;-61
2022/12/23 11:34:02;;;;;;;4.95;2.20;;;;;;;10.20;100.00;93236.13;4985052;28;20820;-61
2022/12/23 11:36:31;;;;;;;4.93;1.90;;;;;;;10.19;100.00;93226.34;5003990;28;20430;-61
2022/12/23 11:39:21;;;;;;;4.78;2.50;;;;;;;10.05;100.00;93229.47;4990090;28;20492;-61
2022/12/23 11:41:52;;;;;;;4.30;2.03;;;;;;;10.05;100.00;93221.22;4992918;28;20039;-61
2022/12/23 11:44:24;;;;;;;4.63;1.77;;;;;;;9.99;100.00;93214.72;4993820;28;20095;-62
2022/12/23 11:46:51;;;;;;;3.85;1.67;;;;;;;9.93;100.00;93205.47;4992475;28;20757;-61
2022/12/23 11:49:32;;;;;;;3.53;1.60;;;;;;;9.91;100.00;93214.13;4993642;28;20402;-62
2022/12/23 11:52:10;;;;;;;3.28;1.40;;;;;;;9.88;100.00;93205.97;4992702;28;20054;-61
2022/12/23 11:54:36;;;;;;;4.40;1.70;;;;;;;9.75;100.00;93197.69;4992505;28;20080;-61
2022/12/23 11:57:08;;;;;;;4.20;1.53;;;;;;;9.79;100.00;93199.13;4993622;28;20046;-62
2022/12/23 11:59:39;;;;;;;3.75;1.80;;;;;;;9.78;100.00;93189.38;4992212;28;20471;-61
2022/12/23 12:02:18;;;;;;;3.15;1.42;;;;;;;9.77;100.00;93185.09;4993033;28;20388;-62
2022/12/23 12:04:59;;;;;;;2.85;1.13;;;;;;;9.80;100.00;93184.25;4992652;28;20081;-61
2022/12/23 12:07:26;;;;;;;2.78;1.40;;;;;;;9.84;100.00;93194.34;4992788;28;20060;-61
2022/12/23 12:09:56;;;;;;;2.93;1.10;;;;;;;9.87;100.00;93174.31;4992867;28;20047;-62
2022/12/23 12:12:23;;;;;;;3.30;1.23;;;;;;;9.88;100.00;93175.84;4993139;28;20042;-62
2022/12/23 12:14:56;;;;;;;3.00;1.40;;;;;;;9.92;100.00;93166.34;4992588;28;20042;-62
2022/12/23 12:17:25;;;;;;;2.72;1.00;;;;;;;9.93;100.00;93162.38;4992879;28;20042;-62
2022/12/23 12:20:04;;;;;;;3.80;1.52;;;;;;;9.95;100.00;93173.69;4991865;28;20414;-62
2022/12/23 12:22:43;;;;;;;2.47;1.30;;;;;;;10.02;100.00;93163.75;4992119;28;20132;-61